Terminal Aerodrome Forecast
Issued by NWS Grand Rapids, MI

Home | Current Version | Previous Version | Text Only | Print | Product List | Glossary On
Versions: 1 2 3 4 5 6 7 8 9 10 11 12 13 14 15 16
000
FTUS43 KGRR 282348
TAFGRR
TAF
KGRR 282348Z 2900/2924 14011KT 6SM -SHRA OVC060
      TEMPO 2900/2903 3SM -SHRA BR OVC040
     FM290300 16013G21KT P6SM BKN050 WS020/20045KT
      TEMPO 2903/2906 3SM -TSRA BR OVC040CB
     FM290600 20016G26KT 3SM -SHRA BR VCTS BKN050CB WS020/22045KT
     FM291200 23015G25KT P6SM BKN030
     FM291600 23015G25KT P6SM BKN040=

USA.gov is the U.S. government's official web portal to all federal, state and local government web resources and services.